Strona główna
METAR-TAF:

METAR-TAF

Lotnisko :

Platforma wiertnicza

L9-ff-1, Holandia

Szerokość geograficzna: 53-36-52N, Długość geograficzna: 4-57-37E, wysokość: 30 m

Aktualna obserwacja pogody

Raport powstał 18 minut temu, godzina 10:25 UTC
Wiatr 8 kt od wschód
Temperatura 7°C
Wilgotność 87%
Ciśnienie 1030 hPa
Widzialność 10 km lub więcej

METAR: EHMG 101025Z AUTO 10008KT 9999 NSC 07/05 Q1030

czas: 12:43 (10:43 UTC)


TAF: brakujący

Obserwacja i prognoza pogody dla ponad 4000 lotnisk (raport METAR i TAF).

Dostępne stacje oznaczono żółtymi i czerwonymi punktami na mapie.

Najedź kursorem aby zobaczyć nazwę stacji.

Kliknij aby zobaczyć obserwacje i prognozy pogody.

Aby zmienić mapę: kliknij na zielony przycisk z czarnym krzyżykiem, aby powiększyć; na zielony przycisk z myślnikiem, aby pomniejszyć; na zielone strzałki, aby przejść do map sąsiednich.


METAR-TAF: